Time;durP1;ratioP1;P1;durP2;ratioP2;P2;SDS_P1;SDS_P2;PMS_P1;PMS_P2;Temp;Humidity;BMP_temperature;BMP_pressure;BME280_temperature;BME280_humidity;BME280_pressure;Samples;Min_cycle;Max_cycle;Signal;HPM_P1;HPM_P2
2023/07/21 00:02:43;;;;;;;2.80;2.50;;;;;;;14.17;75.61;99142.88;435170;1256;139148;-67
2023/07/21 00:12:49;;;;;;;3.50;3.00;;;;;;;14.08;76.24;99130.11;435126;1256;139118;-66
2023/07/21 00:22:54;;;;;;;4.80;3.40;;;;;;;14.08;76.66;99115.13;435591;1253;138815;-67
2023/07/21 00:33:00;;;;;;;2.50;2.40;;;;;;;14.04;77.15;99120.41;435409;1254;139540;-66
2023/07/21 00:43:08;;;;;;;2.70;2.50;;;;;;;14.00;77.70;99121.92;435557;1256;139521;-66
2023/07/21 00:53:13;;;;;;;;;;;;;;;14.05;78.01;99114.70;436538;1254;140340;-67
2023/07/21 01:03:21;;;;;;;3.20;2.90;;;;;;;14.10;78.28;99113.05;435389;1253;126127;-66
2023/07/21 01:13:27;;;;;;;3.70;3.40;;;;;;;14.20;78.72;99116.23;435527;1253;139175;-66
2023/07/21 01:23:45;;;;;;;4.50;3.00;;;;;;;14.35;79.13;99116.66;435754;1254;139126;-66
2023/07/21 01:33:52;;;;;;;4.30;3.90;;;;;;;14.43;78.94;99108.63;435515;1253;139076;-66
2023/07/21 01:43:58;;;;;;;6.10;4.30;;;;;;;14.39;79.17;99104.88;435812;1256;139871;-66
2023/07/21 01:54:12;;;;;;;5.40;3.80;;;;;;;14.38;79.73;99105.84;435682;1254;138932;-67
2023/07/21 02:04:18;;;;;;;6.70;3.90;;;;;;;14.43;80.14;99107.38;435907;1253;140273;-66
2023/07/21 02:14:24;;;;;;;4.30;3.90;;;;;;;14.39;80.19;99113.20;436069;1256;139614;-68
2023/07/21 02:24:30;;;;;;;4.60;3.60;;;;;;;14.25;80.71;99112.62;435566;1253;140699;-66
2023/07/21 02:34:37;;;;;;;4.20;3.80;;;;;;;14.18;81.43;99112.71;435698;1256;139021;-67
2023/07/21 02:44:42;;;;;;;7.60;3.10;;;;;;;14.16;81.75;99111.27;435944;1254;139189;-68
2023/07/21 02:54:49;;;;;;;3.40;3.10;;;;;;;13.98;82.00;99113.55;435542;1254;140736;-67
2023/07/21 03:04:55;;;;;;;5.10;3.10;;;;;;;13.95;82.28;99117.32;435777;1256;139025;-67
2023/07/21 03:15:01;;;;;;;4.30;3.80;;;;;;;14.13;82.59;99117.90;435628;1254;139772;-66
2023/07/21 03:25:10;;;;;;;4.90;3.30;;;;;;;14.83;82.44;99111.13;435397;1253;139012;-67
2023/07/21 03:35:18;;;;;;;4.20;3.70;;;;;;;15.06;81.04;99106.61;436200;1253;138925;-66
2023/07/21 03:45:25;;;;;;;6.50;4.10;;;;;;;15.12;81.26;99114.36;435728;1253;138971;-67
2023/07/21 03:55:31;;;;;;;5.20;4.10;;;;;;;15.11;81.26;99116.01;435836;1253;139684;-67
2023/07/21 04:05:43;;;;;;;4.50;3.90;;;;;;;15.09;81.71;99128.36;435804;1253;139283;-68
2023/07/21 04:15:53;;;;;;;4.90;4.50;;;;;;;15.16;82.23;99127.58;435998;1256;141850;-68
2023/07/21 04:25:58;;;;;;;4.90;4.40;;;;;;;15.29;82.25;99129.61;435796;1253;140520;-67
2023/07/21 04:36:05;;;;;;;5.00;3.90;;;;;;;15.40;82.29;99136.80;435720;1256;140804;-67
2023/07/21 04:46:12;;;;;;;4.70;4.30;;;;;;;15.56;82.39;99136.59;435531;1256;139493;-67
2023/07/21 04:56:17;;;;;;;6.00;4.80;;;;;;;15.93;82.05;99143.19;435301;1254;140135;-69
2023/07/21 05:06:24;;;;;;;4.50;4.10;;;;;;;16.30;81.21;99148.02;435233;1254;140563;-68
2023/07/21 05:16:30;;;;;;;2.90;2.70;;;;;;;17.27;80.21;99154.76;435467;1253;139637;-70
2023/07/21 05:26:37;;;;;;;4.20;3.20;;;;;;;18.84;78.79;99153.03;435497;1253;140152;-70
2023/07/21 05:36:43;;;;;;;2.10;1.90;;;;;;;26.21;69.59;99149.16;435628;1254;138963;-70
2023/07/21 05:46:48;;;;;;;7.20;1.80;;;;;;;28.11;58.72;99146.61;435347;1256;139704;-68
2023/07/21 05:56:56;;;;;;;1.90;1.50;;;;;;;34.06;51.59;99140.48;435442;1256;139011;-71
2023/07/21 06:07:02;;;;;;;1.20;1.00;;;;;;;39.89;41.18;99130.63;435503;1256;138735;-70
2023/07/21 06:17:08;;;;;;;2.10;1.10;;;;;;;45.31;33.63;99125.59;435622;1256;138641;-63
2023/07/21 06:27:14;;;;;;;0.70;0.60;;;;;;;49.10;27.10;99116.00;435996;1253;139080;-61
2023/07/21 06:37:20;;;;;;;1.60;0.80;;;;;;;50.06;23.28;99113.94;435598;1253;138325;-61
2023/07/21 06:47:26;;;;;;;1.10;0.80;;;;;;;50.04;21.38;99113.48;435711;1256;138170;-62
2023/07/21 06:57:32;;;;;;;1.10;0.90;;;;;;;51.78;19.28;99112.15;435697;1254;141003;-64
2023/07/21 07:07:38;;;;;;;1.50;1.40;;;;;;;52.78;17.61;99110.79;435629;1256;139247;-64
2023/07/21 07:17:44;;;;;;;2.30;1.30;;;;;;;53.62;15.98;99110.36;435467;1256;138750;-64
2023/07/21 07:27:50;;;;;;;1.90;0.60;;;;;;;50.59;16.53;99102.13;435477;1254;139190;-75
2023/07/21 07:37:56;;;;;;;0.50;0.50;;;;;;;49.37;15.85;99101.60;435379;1254;154534;-65
2023/07/21 07:48:02;;;;;;;0.60;0.60;;;;;;;46.38;16.34;99106.55;435848;1254;138664;-67
2023/07/21 07:58:08;;;;;;;0.60;0.60;;;;;;;43.97;17.32;99114.64;436163;1254;139516;-67
2023/07/21 08:08:14;;;;;;;1.20;0.60;;;;;;;43.87;17.16;99113.76;438932;1253;139956;-67
2023/07/21 08:18:20;;;;;;;2.60;1.10;;;;;;;38.07;19.14;99119.52;436092;1254;139450;-65
2023/07/21 08:28:26;;;;;;;2.20;0.50;;;;;;;34.19;22.02;99119.53;436077;1254;138377;-63
2023/07/21 08:38:30;;;;;;;;;;;;;;;33.33;23.21;99111.61;435663;1256;140097;-65
2023/07/21 08:48:36;;;;;;;0.50;0.50;;;;;;;32.74;23.88;99097.02;435385;1254;126126;-67
2023/07/21 08:58:40;;;;;;;;;;;;;;;32.02;24.50;99096.23;435587;1256;139489;-69
2023/07/21 09:08:48;;;;;;;3.70;0.90;;;;;;;30.75;25.14;99099.95;435852;1254;127538;-69
2023/07/21 09:18:54;;;;;;;0.60;0.40;;;;;;;29.54;25.92;99094.80;435770;1256;138998;-69
2023/07/21 09:29:03;;;;;;;0.60;0.50;;;;;;;28.54;26.97;99090.02;435468;1254;138885;-70
2023/07/21 09:39:08;;;;;;;0.60;0.60;;;;;;;28.16;28.04;99084.55;435677;1257;138618;-70
2023/07/21 09:49:14;;;;;;;1.70;0.60;;;;;;;28.40;27.74;99078.27;435791;1257;139843;-69
2023/07/21 09:59:21;;;;;;;0.60;0.60;;;;;;;28.67;27.63;99074.75;435968;1256;138898;-69
2023/07/21 10:09:27;;;;;;;1.50;0.40;;;;;;;29.04;27.46;99069.34;435725;1256;138385;-66
2023/07/21 10:19:41;;;;;;;1.50;1.00;;;;;;;29.40;27.03;99066.66;435443;1257;138856;-65
2023/07/21 10:29:46;;;;;;;1.00;0.50;;;;;;;29.40;26.82;99062.94;436354;1257;139580;-65
2023/07/21 10:39:57;;;;;;;2.20;0.50;;;;;;;29.03;26.70;99062.05;436096;1256;138382;-65
2023/07/21 10:50:09;;;;;;;4.90;0.80;;;;;;;28.74;26.47;99054.95;436156;1256;138696;-65
2023/07/21 11:00:16;;;;;;;2.30;0.60;;;;;;;28.36;26.61;99049.36;436299;1257;138962;-65
2023/07/21 11:10:22;;;;;;;2.60;0.80;;;;;;;27.76;27.03;99049.04;436176;1257;138432;-65
2023/07/21 11:20:28;;;;;;;0.90;0.60;;;;;;;27.45;27.30;99048.11;435658;1257;139768;-66
2023/07/21 11:30:34;;;;;;;0.90;0.50;;;;;;;27.35;27.15;99040.08;435595;1257;139994;-65
2023/07/21 11:40:40;;;;;;;0.80;0.70;;;;;;;27.54;27.54;99033.55;435929;1256;140855;-65
2023/07/21 11:50:52;;;;;;;1.90;0.80;;;;;;;27.60;27.80;99026.27;435678;1254;140753;-65
2023/07/21 12:00:58;;;;;;;0.80;0.70;;;;;;;27.65;28.18;99020.23;435591;1255;138929;-66
2023/07/21 12:11:04;;;;;;;2.70;1.00;;;;;;;28.05;27.52;99008.74;435578;1257;138907;-65
2023/07/21 12:21:27;;;;;;;1.90;0.80;;;;;;;28.00;26.88;99000.69;435932;1257;139097;-66
2023/07/21 12:31:33;;;;;;;1.50;0.80;;;;;;;27.54;27.33;98992.21;435995;1254;138539;-67
2023/07/21 12:41:39;;;;;;;;;;;;;;;27.40;27.67;98985.04;435886;1254;138255;-65
2023/07/21 12:51:45;;;;;;;0.70;0.50;;;;;;;27.53;27.66;98974.92;435382;1254;126537;-65
2023/07/21 13:01:51;;;;;;;1.80;0.60;;;;;;;27.55;27.61;98974.11;435690;1254;139217;-67
2023/07/21 13:11:58;;;;;;;0.50;0.50;;;;;;;27.50;27.76;98975.70;435605;1255;138572;-66
2023/07/21 13:22:05;;;;;;;1.20;0.70;;;;;;;27.04;28.11;98974.32;435297;1254;138483;-71
2023/07/21 13:32:11;;;;;;;2.10;1.90;;;;;;;26.47;28.72;98978.23;435849;1256;138720;-64
2023/07/21 13:42:18;;;;;;;1.60;1.10;;;;;;;26.37;29.24;98979.02;435749;1257;138505;-68
2023/07/21 13:52:24;;;;;;;1.30;1.10;;;;;;;26.39;28.83;98975.02;435743;1254;139833;-69
2023/07/21 14:02:33;;;;;;;0.60;0.60;;;;;;;26.07;28.60;98962.23;435816;1256;139775;-68
2023/07/21 14:12:40;;;;;;;1.60;0.90;;;;;;;25.51;29.04;98957.21;438080;1257;138939;-69
2023/07/21 14:22:46;;;;;;;2.10;0.70;;;;;;;25.71;29.15;98955.40;438111;1254;138576;-70
2023/07/21 14:32:51;;;;;;;2.00;0.90;;;;;;;26.14;29.19;98957.20;438222;1254;138577;-73
2023/07/21 14:42:57;;;;;;;2.20;0.70;;;;;;;26.17;29.50;98954.57;437934;1254;138369;-69
2023/07/21 14:53:03;;;;;;;1.80;0.60;;;;;;;26.18;29.69;98942.65;435593;1256;138450;-64
2023/07/21 15:03:11;;;;;;;0.60;0.60;;;;;;;26.50;30.01;98941.20;435943;1254;139114;-64
2023/07/21 15:13:17;;;;;;;1.00;0.80;;;;;;;26.20;29.71;98926.98;435329;1256;140720;-67
2023/07/21 15:23:23;;;;;;;2.10;1.00;;;;;;;26.03;29.71;98910.23;435426;1252;139877;-68
2023/07/21 15:33:29;;;;;;;2.60;0.80;;;;;;;25.78;30.03;98908.73;435576;1257;140088;-73
2023/07/21 15:43:35;;;;;;;2.70;0.50;;;;;;;25.35;30.08;98901.70;435613;1257;138774;-73
2023/07/21 15:53:40;;;;;;;0.50;0.50;;;;;;;25.25;30.14;98907.43;435276;1256;139966;-74
2023/07/21 16:03:49;;;;;;;1.00;0.60;;;;;;;24.93;30.86;98902.63;435745;1257;139858;-73
2023/07/21 16:13:55;;;;;;;1.00;0.70;;;;;;;24.68;31.23;98893.21;435923;1256;140869;-74
2023/07/21 16:24:01;;;;;;;1.90;0.80;;;;;;;24.53;31.33;98872.46;436132;1255;138423;-74
2023/07/21 16:34:06;;;;;;;1.10;0.70;;;;;;;24.13;31.80;98873.27;435707;1256;138388;-73
2023/07/21 16:44:12;;;;;;;1.20;0.70;;;;;;;23.87;32.06;98868.66;436121;1256;140584;-74
2023/07/21 16:54:18;;;;;;;1.00;0.70;;;;;;;23.65;32.43;98863.05;436172;1256;138686;-74
2023/07/21 17:04:30;;;;;;;1.60;0.70;;;;;;;23.25;32.80;98858.71;435878;1254;139019;-74
2023/07/21 17:14:36;;;;;;;0.60;0.60;;;;;;;22.91;33.14;98858.25;436315;1253;139643;-73
2023/07/21 17:24:46;;;;;;;0.70;0.70;;;;;;;22.80;33.58;98849.33;436196;1256;139858;-75
2023/07/21 17:34:53;;;;;;;0.70;0.70;;;;;;;22.74;34.10;98839.34;436167;1253;138478;-75
2023/07/21 17:45:00;;;;;;;1.50;0.60;;;;;;;22.69;34.07;98838.34;436301;1253;138512;-72
2023/07/21 17:55:07;;;;;;;1.20;1.10;;;;;;;22.56;34.09;98836.45;435949;1253;138868;-75
2023/07/21 18:05:16;;;;;;;1.90;1.50;;;;;;;22.38;35.12;98815.71;436202;1256;139469;-74
2023/07/21 18:15:22;;;;;;;2.10;1.90;;;;;;;22.16;34.93;98807.50;435609;1253;138448;-73
2023/07/21 18:25:28;;;;;;;4.50;1.50;;;;;;;21.99;37.05;98810.48;435528;1253;139723;-75
2023/07/21 18:35:34;;;;;;;4.60;1.60;;;;;;;21.77;38.98;98813.14;436067;1256;138551;-74
2023/07/21 18:45:40;;;;;;;3.10;1.60;;;;;;;21.57;39.48;98813.29;435500;1253;139393;-74
2023/07/21 18:55:46;;;;;;;3.80;1.60;;;;;;;21.38;38.87;98806.67;435870;1256;139948;-74
2023/07/21 19:05:52;;;;;;;4.50;1.40;;;;;;;21.25;38.39;98810.59;436315;1253;139500;-74
2023/07/21 19:15:58;;;;;;;2.70;1.70;;;;;;;21.13;38.33;98806.33;436195;1253;138819;-74
2023/07/21 19:26:05;;;;;;;1.80;1.50;;;;;;;21.00;38.80;98818.08;436031;1256;138980;-74
2023/07/21 19:36:15;;;;;;;3.60;1.80;;;;;;;20.94;38.78;98812.30;435786;1253;139397;-75
2023/07/21 19:46:21;;;;;;;1.40;1.00;;;;;;;20.87;39.03;98812.66;436295;1253;138330;-74
2023/07/21 19:56:28;;;;;;;2.60;1.30;;;;;;;20.73;39.37;98821.17;436228;1253;138645;-74
2023/07/21 20:06:34;;;;;;;2.60;1.90;;;;;;;20.59;40.12;98831.93;436008;1255;140273;-74
2023/07/21 20:16:40;;;;;;;2.70;1.60;;;;;;;20.49;40.73;98845.16;440393;1253;139642;-73
2023/07/21 20:26:46;;;;;;;3.30;2.10;;;;;;;20.41;41.55;98845.16;440984;1254;139584;-75
2023/07/21 20:36:53;;;;;;;2.70;2.50;;;;;;;20.37;42.67;98866.30;437697;1256;139856;-74
2023/07/21 20:46:59;;;;;;;3.30;1.90;;;;;;;20.00;47.00;98893.20;435616;1254;138543;-74
2023/07/21 20:57:06;;;;;;;4.90;2.40;;;;;;;19.42;51.88;98894.30;435689;1253;138758;-74
2023/07/21 21:07:12;;;;;;;3.60;3.10;;;;;;;19.00;55.70;98880.40;436223;1256;138844;-73
2023/07/21 21:17:18;;;;;;;5.80;3.10;;;;;;;18.66;58.93;98882.84;436425;1256;139220;-74
2023/07/21 21:27:25;;;;;;;4.20;3.50;;;;;;;18.40;61.54;98892.09;436436;1253;140448;-72
2023/07/21 21:37:33;;;;;;;8.10;4.20;;;;;;;18.12;62.70;98869.54;436410;1256;139725;-77
2023/07/21 21:47:39;;;;;;;4.80;4.30;;;;;;;17.86;64.16;98846.33;436636;1253;139167;-73
2023/07/21 21:57:45;;;;;;;4.50;4.10;;;;;;;17.51;65.59;98844.52;436813;1254;141105;-74
2023/07/21 22:07:52;;;;;;;;;;;;;;;17.33;66.83;98846.21;437171;1256;139095;-73
2023/07/21 22:17:58;;;;;;;6.90;4.40;;;;;;;17.28;67.74;98849.95;436487;1253;125584;-73
2023/07/21 22:28:04;;;;;;;5.10;4.50;;;;;;;17.33;68.69;98855.67;436135;1254;139658;-73
2023/07/21 22:38:10;;;;;;;5.20;4.70;;;;;;;17.36;69.71;98859.72;436107;1256;139804;-75
2023/07/21 22:48:15;;;;;;;11.10;8.90;;;;;;;17.34;70.90;98868.07;436471;1254;140486;-75
2023/07/21 22:58:22;;;;;;;5.90;5.40;;;;;;;17.29;71.36;98867.52;436278;1253;139831;-74
2023/07/21 23:08:28;;;;;;;4.80;4.50;;;;;;;17.24;72.31;98880.04;436592;1256;140714;-74
2023/07/21 23:18:34;;;;;;;6.10;5.30;;;;;;;17.10;73.48;98891.05;436252;1254;140490;-74
2023/07/21 23:28:40;;;;;;;5.60;5.10;;;;;;;17.04;74.35;98879.41;436601;1253;139101;-76
2023/07/21 23:38:46;;;;;;;5.20;4.70;;;;;;;16.87;74.96;98886.11;436160;1254;139116;-73
2023/07/21 23:48:52;;;;;;;8.10;6.00;;;;;;;16.78;75.60;98887.55;436897;1253;140837;-73
2023/07/21 23:58:58;;;;;;;6.00;5.30;;;;;;;16.59;76.22;98887.98;436270;1253;140433;-74
